Time;durP1;ratioP1;P1;durP2;ratioP2;P2;SDS_P1;SDS_P2;PMS_P1;PMS_P2;Temp;Humidity;BMP_temperature;BMP_pressure;BME280_temperature;BME280_humidity;BME280_pressure;Samples;Min_cycle;Max_cycle;Signal;HPM_P1;HPM_P2
2021/03/24 00:00:55;;;;;;;26.47;13.83;;;-2.10;99.90;;;;;;2080412;28;20209;-71
2021/03/24 00:01:56;;;;;;;31.00;14.85;;;-2.10;99.90;;;;;;2081177;28;20617;-70
2021/03/24 00:02:57;;;;;;;28.73;14.73;;;-2.10;99.90;;;;;;2080571;28;20185;-71
2021/03/24 00:03:58;;;;;;;27.90;14.82;;;-2.10;99.90;;;;;;2081096;28;20177;-70
2021/03/24 00:04:59;;;;;;;24.47;14.03;;;-2.10;99.90;;;;;;2089653;28;20200;-70
2021/03/24 00:06:00;;;;;;;29.23;15.17;;;-2.10;99.90;;;;;;2089298;28;20183;-71
2021/03/24 00:07:01;;;;;;;30.00;14.38;;;-2.20;99.90;;;;;;2081147;28;20181;-71
2021/03/24 00:08:02;;;;;;;29.53;15.37;;;-2.20;99.90;;;;;;2081102;28;20185;-70
2021/03/24 00:09:09;;;;;;;28.15;14.85;;;-2.20;99.90;;;;;;2072954;28;20186;-71
2021/03/24 00:10:13;;;;;;;25.98;13.57;;;-2.20;99.90;;;;;;2081346;28;20172;-71
2021/03/24 00:11:15;;;;;;;33.22;15.10;;;-2.20;99.90;;;;;;2080486;28;20558;-70
2021/03/24 00:12:16;;;;;;;28.63;14.32;;;-2.20;99.90;;;;;;2073228;28;20194;-71
2021/03/24 00:13:17;;;;;;;30.27;14.40;;;-2.20;99.90;;;;;;2072789;28;20261;-71
2021/03/24 00:14:18;;;;;;;27.35;15.05;;;-2.20;99.90;;;;;;2073053;28;20206;-70
2021/03/24 00:15:19;;;;;;;29.63;14.43;;;-2.20;99.90;;;;;;2081171;28;20185;-70
2021/03/24 00:16:20;;;;;;;27.25;14.70;;;-2.20;99.90;;;;;;2081859;28;20601;-70
2021/03/24 00:17:20;;;;;;;32.40;15.83;;;-2.20;99.90;;;;;;2081796;28;20205;-71
2021/03/24 00:18:22;;;;;;;30.07;15.27;;;-2.20;99.90;;;;;;2081733;28;20273;-71
2021/03/24 00:19:22;;;;;;;28.75;15.77;;;-2.30;99.90;;;;;;2081098;28;20177;-71
2021/03/24 00:20:28;;;;;;;26.27;14.40;;;-2.20;99.90;;;;;;2080966;28;20650;-71
2021/03/24 00:21:29;;;;;;;28.52;14.52;;;-2.20;99.90;;;;;;2080644;28;20231;-70
2021/03/24 00:22:30;;;;;;;24.80;13.77;;;-2.20;99.90;;;;;;2081048;28;20399;-71
2021/03/24 00:23:30;;;;;;;28.13;14.70;;;-2.20;99.90;;;;;;2081801;28;20184;-71
2021/03/24 00:24:31;;;;;;;31.70;15.43;;;-2.20;99.90;;;;;;2081912;28;20663;-71
2021/03/24 00:25:33;;;;;;;26.97;14.90;;;-2.20;99.90;;;;;;2081669;28;20174;-71
2021/03/24 00:26:34;;;;;;;28.95;15.43;;;-2.20;99.90;;;;;;2081161;28;20719;-70
2021/03/24 00:27:35;;;;;;;25.53;14.00;;;-2.20;99.90;;;;;;2072995;28;20283;-70
2021/03/24 00:28:36;;;;;;;27.05;14.50;;;-2.30;99.90;;;;;;2081128;28;20181;-71
2021/03/24 00:29:37;;;;;;;28.13;14.40;;;-2.30;99.90;;;;;;2081753;28;20188;-70
2021/03/24 00:30:43;;;;;;;32.13;16.00;;;-2.30;99.90;;;;;;2081737;28;20181;-70
2021/03/24 00:31:44;;;;;;;30.50;14.43;;;-2.20;99.90;;;;;;2081555;28;20165;-71
2021/03/24 00:32:45;;;;;;;29.47;14.27;;;-2.20;99.90;;;;;;2081990;28;20211;-73
2021/03/24 00:33:45;;;;;;;27.50;14.30;;;-2.30;99.90;;;;;;2082015;28;20256;-71
2021/03/24 00:34:46;;;;;;;25.60;14.00;;;-2.30;99.90;;;;;;2081555;28;20207;-70
2021/03/24 00:35:47;;;;;;;33.57;16.60;;;-2.30;99.90;;;;;;2081786;28;20181;-70
2021/03/24 00:36:48;;;;;;;27.27;14.45;;;-2.30;99.90;;;;;;2081042;28;20177;-71
2021/03/24 00:37:49;;;;;;;26.67;14.57;;;-2.20;99.90;;;;;;2081081;28;20634;-70
2021/03/24 00:38:51;;;;;;;30.38;14.85;;;-2.30;99.90;;;;;;2081724;28;20268;-71
2021/03/24 00:39:52;;;;;;;27.75;14.52;;;-2.30;99.90;;;;;;2081532;28;20177;-71
2021/03/24 00:40:56;;;;;;;31.13;15.20;;;-2.30;99.90;;;;;;2080424;28;20940;-71
2021/03/24 00:41:57;;;;;;;29.77;14.65;;;-2.30;99.90;;;;;;2073336;28;20672;-71
2021/03/24 00:42:58;;;;;;;28.20;14.40;;;-2.30;99.90;;;;;;2080934;28;20272;-72
2021/03/24 00:43:59;;;;;;;28.20;14.10;;;-2.30;99.90;;;;;;2080972;28;20181;-70
2021/03/24 00:45:00;;;;;;;28.83;14.33;;;-2.30;99.90;;;;;;2080723;28;20606;-71
2021/03/24 00:46:01;;;;;;;28.37;15.17;;;-2.30;99.90;;;;;;2080857;28;20618;-70
2021/03/24 00:47:02;;;;;;;27.40;15.00;;;-2.30;99.90;;;;;;2072319;28;20182;-71
2021/03/24 00:48:05;;;;;;;25.45;13.77;;;-2.30;99.90;;;;;;2072656;28;20186;-71
2021/03/24 00:49:06;;;;;;;23.85;13.13;;;-2.30;99.90;;;;;;2080654;28;20496;-71
2021/03/24 00:50:08;;;;;;;26.53;13.63;;;-2.30;99.90;;;;;;2072548;28;20266;-71
2021/03/24 00:51:09;;;;;;;25.85;14.18;;;-2.30;99.90;;;;;;2072142;28;20232;-71
2021/03/24 00:52:10;;;;;;;30.27;14.73;;;-2.40;99.90;;;;;;2080826;28;20674;-71
2021/03/24 00:53:10;;;;;;;26.00;13.47;;;-2.40;99.90;;;;;;2081011;28;20181;-70
2021/03/24 00:54:11;;;;;;;29.73;15.13;;;-2.40;99.90;;;;;;2081218;28;20581;-70
2021/03/24 00:55:12;;;;;;;29.63;13.80;;;-2.40;99.90;;;;;;2081187;28;20181;-71
2021/03/24 00:56:13;;;;;;;29.10;14.75;;;-2.40;99.90;;;;;;2080785;28;20212;-71
2021/03/24 00:57:14;;;;;;;26.43;13.50;;;-2.40;99.90;;;;;;2080249;28;20212;-71
2021/03/24 00:58:16;;;;;;;23.87;14.00;;;-2.40;99.90;;;;;;2080728;28;20180;-72
2021/03/24 00:59:17;;;;;;;27.90;13.98;;;-2.40;99.90;;;;;;2080567;28;20251;-70
2021/03/24 01:00:33;;;;;;;27.47;13.80;;;-2.40;99.90;;;;;;2081608;28;20652;-70
2021/03/24 01:01:34;;;;;;;25.40;12.95;;;-2.40;99.90;;;;;;2080211;28;20200;-71
2021/03/24 01:02:34;;;;;;;25.20;13.53;;;-2.40;99.90;;;;;;2080929;28;20215;-71
2021/03/24 01:03:37;;;;;;;25.63;12.93;;;-2.40;99.90;;;;;;2081507;28;20181;-71
2021/03/24 01:04:38;;;;;;;20.80;11.75;;;-2.50;99.90;;;;;;2072607;28;20636;-71
2021/03/24 01:05:41;;;;;;;24.37;13.00;;;-2.50;99.90;;;;;;2072615;28;20292;-71
2021/03/24 01:06:42;;;;;;;26.27;13.13;;;-2.50;99.90;;;;;;2089154;28;20303;-72
2021/03/24 01:07:44;;;;;;;24.63;14.13;;;-2.50;99.90;;;;;;2089088;28;20184;-71
2021/03/24 01:08:45;;;;;;;28.85;14.18;;;-2.50;99.90;;;;;;2081031;28;20455;-71
2021/03/24 01:09:46;;;;;;;26.83;13.47;;;-2.50;99.90;;;;;;2080674;28;20757;-71
2021/03/24 01:10:47;;;;;;;30.23;14.97;;;-2.60;99.90;;;;;;2081379;28;20264;-70
2021/03/24 01:11:48;;;;;;;29.10;15.60;;;-2.60;99.90;;;;;;2080436;28;20184;-71
2021/03/24 01:12:49;;;;;;;26.38;14.05;;;-2.50;99.90;;;;;;2072327;28;20655;-71
2021/03/24 01:13:49;;;;;;;27.13;12.57;;;-2.50;99.90;;;;;;2064146;28;20190;-70
2021/03/24 01:14:50;;;;;;;32.83;15.03;;;-2.50;99.90;;;;;;2081009;28;20177;-71
2021/03/24 01:15:51;;;;;;;25.67;12.83;;;-2.50;99.90;;;;;;2081136;28;20671;-71
2021/03/24 01:16:51;;;;;;;32.47;14.30;;;-2.50;99.90;;;;;;2080764;28;20180;-70
2021/03/24 01:17:55;;;;;;;30.90;14.27;;;-2.50;99.90;;;;;;2080345;28;20212;-71
2021/03/24 01:18:55;;;;;;;27.85;13.70;;;-2.50;99.90;;;;;;2081236;28;20644;-71
2021/03/24 01:19:56;;;;;;;28.70;13.30;;;-2.50;99.90;;;;;;2080493;28;20180;-71
2021/03/24 01:20:57;;;;;;;26.67;13.13;;;-2.50;99.90;;;;;;2079601;28;20509;-71
2021/03/24 01:21:58;;;;;;;29.27;14.10;;;-2.50;99.90;;;;;;2081207;28;20181;-70
2021/03/24 01:22:59;;;;;;;30.20;14.20;;;-2.50;99.90;;;;;;2081316;28;20244;-70
2021/03/24 01:23:59;;;;;;;25.50;13.35;;;-2.50;99.90;;;;;;2080637;28;20177;-70
2021/03/24 01:25:00;;;;;;;31.47;15.10;;;-2.50;99.90;;;;;;2080738;28;20185;-71
2021/03/24 01:26:01;;;;;;;34.13;15.63;;;-2.50;99.90;;;;;;2081287;28;20177;-70
2021/03/24 01:27:02;;;;;;;26.17;13.77;;;-2.60;99.90;;;;;;2081287;28;20661;-71
2021/03/24 01:28:07;;;;;;;29.95;14.15;;;-2.50;99.90;;;;;;2081183;28;20227;-72
2021/03/24 01:29:07;;;;;;;22.88;11.95;;;-2.50;99.90;;;;;;2080948;28;20181;-70
2021/03/24 01:30:09;;;;;;;29.87;13.10;;;-2.60;99.90;;;;;;2081025;28;20177;-70
2021/03/24 01:31:10;;;;;;;30.48;13.48;;;-2.60;99.90;;;;;;2079680;28;20322;-70
2021/03/24 01:32:11;;;;;;;29.07;14.33;;;-2.60;99.90;;;;;;2080385;28;20239;-71
2021/03/24 01:33:13;;;;;;;29.27;14.53;;;-2.60;99.90;;;;;;2081123;28;20188;-71
2021/03/24 01:34:13;;;;;;;25.20;14.05;;;-2.60;99.90;;;;;;2081294;28;20246;-71
2021/03/24 01:35:18;;;;;;;28.60;13.23;;;-2.60;99.90;;;;;;2081083;28;20181;-70
2021/03/24 01:36:19;;;;;;;24.35;13.55;;;-2.60;99.90;;;;;;2072315;28;20231;-71
2021/03/24 01:37:19;;;;;;;27.17;12.48;;;-2.60;99.90;;;;;;2072118;28;20194;-71
2021/03/24 01:38:21;;;;;;;26.03;13.47;;;-2.60;99.90;;;;;;2081476;28;20206;-71
2021/03/24 01:39:22;;;;;;;28.73;13.38;;;-2.60;99.90;;;;;;2080584;28;20200;-70
2021/03/24 01:40:37;;;;;;;28.33;13.80;;;-2.60;99.90;;;;;;2072637;28;20190;-71
2021/03/24 01:41:38;;;;;;;28.10;12.82;;;-2.70;99.90;;;;;;2080153;28;20192;-71
2021/03/24 01:42:39;;;;;;;27.80;13.48;;;-2.70;99.90;;;;;;2081357;28;20193;-71
2021/03/24 01:43:40;;;;;;;24.40;12.07;;;-2.70;99.90;;;;;;2081291;28;20181;-70
2021/03/24 01:45:09;;;;;;;23.38;12.20;;;-2.70;99.90;;;;;;2080753;28;20295;-70
2021/03/24 01:46:18;;;;;;;26.15;11.63;;;-2.70;99.90;;;;;;2076163;28;20207;-70
2021/03/24 01:47:19;;;;;;;20.42;11.35;;;-2.70;99.90;;;;;;2080647;28;20204;-71
2021/03/24 01:48:20;;;;;;;24.77;12.37;;;-2.70;99.90;;;;;;2081061;28;20181;-71
2021/03/24 01:49:29;;;;;;;25.08;12.25;;;-2.70;99.90;;;;;;2072462;28;20694;-70
2021/03/24 01:50:37;;;;;;;24.08;12.32;;;-2.70;99.90;;;;;;2066339;28;20193;-71
2021/03/24 01:51:47;;;;;;;22.65;11.85;;;-2.70;99.90;;;;;;2079908;28;20189;-71
2021/03/24 01:52:48;;;;;;;26.95;12.65;;;-2.70;99.90;;;;;;2080855;28;20232;-71
2021/03/24 01:53:50;;;;;;;26.60;12.95;;;-2.70;99.90;;;;;;2080388;28;20264;-71
2021/03/24 01:54:51;;;;;;;23.20;12.55;;;-2.70;99.90;;;;;;2080570;28;20222;-70
2021/03/24 01:55:52;;;;;;;23.55;12.98;;;-2.70;99.90;;;;;;2080569;28;20833;-72
2021/03/24 01:57:04;;;;;;;24.23;12.37;;;-2.70;99.90;;;;;;2072340;28;20185;-71
2021/03/24 01:58:04;;;;;;;25.65;12.65;;;-2.70;99.90;;;;;;2066940;28;20261;-70
2021/03/24 01:59:06;;;;;;;24.63;12.83;;;-2.70;99.90;;;;;;2072295;28;20186;-70
2021/03/24 02:00:15;;;;;;;21.48;11.90;;;-2.70;99.90;;;;;;2072353;28;20209;-71
2021/03/24 02:01:18;;;;;;;23.65;12.35;;;-2.70;99.90;;;;;;2079849;28;20202;-71
2021/03/24 02:02:37;;;;;;;23.98;12.55;;;-2.80;99.90;;;;;;2081072;28;20191;-70
2021/03/24 02:03:38;;;;;;;26.85;12.95;;;-2.80;99.90;;;;;;2075613;28;20173;-71
2021/03/24 02:04:39;;;;;;;23.35;12.35;;;-2.80;99.90;;;;;;2072223;28;20266;-71
2021/03/24 02:05:44;;;;;;;26.60;12.33;;;-2.80;99.90;;;;;;2088592;28;20203;-72
2021/03/24 02:07:03;;;;;;;28.27;12.38;;;-2.80;99.90;;;;;;2088640;28;20176;-71
2021/03/24 02:08:14;;;;;;;26.13;11.90;;;-2.80;99.90;;;;;;2083159;28;20173;-71
2021/03/24 02:09:35;;;;;;;24.25;11.68;;;-2.80;99.90;;;;;;2081890;28;20185;-71
2021/03/24 02:10:50;;;;;;;29.92;12.77;;;-2.80;99.90;;;;;;2088955;28;20219;-71
2021/03/24 02:12:11;;;;;;;26.70;12.77;;;-2.70;99.90;;;;;;2089196;28;20164;-72
2021/03/24 02:13:22;;;;;;;30.65;12.60;;;-2.70;99.90;;;;;;2080393;28;20195;-73
2021/03/24 02:14:48;;;;;;;26.27;12.68;;;-2.80;99.90;;;;;;2074851;28;20178;-71
2021/03/24 02:15:59;;;;;;;26.02;11.23;;;-2.80;99.90;;;;;;2083766;28;20230;-70
2021/03/24 02:17:02;;;;;;;30.92;13.25;;;-2.80;99.90;;;;;;2081596;28;20190;-71
2021/03/24 02:18:06;;;;;;;24.85;12.40;;;-2.80;99.90;;;;;;2080800;28;20215;-71
2021/03/24 02:19:51;;;;;;;21.95;11.57;;;-2.80;99.90;;;;;;2081009;28;20575;-71
2021/03/24 02:21:12;;;;;;;27.83;11.93;;;-2.80;99.90;;;;;;2085175;28;20232;-71
2021/03/24 02:22:19;;;;;;;25.95;11.10;;;-2.80;99.90;;;;;;2088819;28;20171;-70
2021/03/24 02:23:28;;;;;;;23.55;12.07;;;-2.70;99.90;;;;;;2072922;28;20703;-71
2021/03/24 02:24:48;;;;;;;24.77;11.27;;;-2.70;99.90;;;;;;2081590;28;20177;-72
2021/03/24 02:26:33;;;;;;;26.70;12.73;;;-2.70;99.90;;;;;;2089411;28;20188;-70
2021/03/24 02:27:39;;;;;;;23.92;11.32;;;-2.70;99.90;;;;;;2088533;28;20188;-70
2021/03/24 02:28:41;;;;;;;22.73;11.25;;;-2.70;99.90;;;;;;2080352;28;20179;-71
2021/03/24 02:29:57;;;;;;;26.45;12.48;;;-2.80;99.90;;;;;;2080463;28;20181;-71
2021/03/24 02:30:59;;;;;;;22.50;12.05;;;-2.80;99.90;;;;;;2083255;28;20168;-72
2021/03/24 02:32:03;;;;;;;22.85;11.68;;;-2.80;99.90;;;;;;2089943;28;20699;-70
2021/03/24 02:33:10;;;;;;;24.17;12.50;;;-2.80;99.90;;;;;;2090154;28;20185;-70
2021/03/24 02:34:19;;;;;;;24.65;12.63;;;-2.80;99.90;;;;;;2082793;28;20252;-71
2021/03/24 02:35:28;;;;;;;21.60;10.55;;;-2.80;99.90;;;;;;2082889;28;20204;-71
2021/03/24 02:36:30;;;;;;;23.45;11.82;;;-2.80;99.90;;;;;;2082833;28;20165;-71
2021/03/24 02:37:34;;;;;;;22.98;12.05;;;-2.90;99.90;;;;;;2081577;28;20227;-71
2021/03/24 02:38:38;;;;;;;26.48;11.10;;;-2.90;99.90;;;;;;2082003;28;20318;-71
2021/03/24 02:39:42;;;;;;;22.17;11.95;;;-2.90;99.90;;;;;;2082075;28;20635;-71
2021/03/24 02:40:45;;;;;;;21.38;11.68;;;-2.90;99.90;;;;;;2082018;28;20280;-72
2021/03/24 02:41:47;;;;;;;21.17;10.75;;;-2.90;99.90;;;;;;2081211;28;20189;-71
2021/03/24 02:42:49;;;;;;;22.67;11.05;;;-2.90;99.90;;;;;;2081748;28;20209;-71
2021/03/24 02:43:51;;;;;;;21.92;11.35;;;-2.90;99.90;;;;;;2082001;28;20208;-71
2021/03/24 02:44:53;;;;;;;21.35;10.90;;;-2.90;99.90;;;;;;2081856;28;20182;-70
2021/03/24 02:45:55;;;;;;;22.33;10.68;;;-2.90;99.90;;;;;;2089751;28;20208;-70
2021/03/24 02:46:57;;;;;;;22.67;10.80;;;-3.00;99.90;;;;;;2090591;28;20184;-71
2021/03/24 02:48:05;;;;;;;19.92;10.75;;;-3.00;99.90;;;;;;2090130;28;20180;-70
2021/03/24 02:49:07;;;;;;;23.83;10.27;;;-3.00;99.90;;;;;;2090479;28;20207;-71
2021/03/24 02:50:10;;;;;;;21.92;11.15;;;-3.00;99.90;;;;;;2081424;28;20173;-70
2021/03/24 02:51:16;;;;;;;21.73;11.98;;;-2.90;99.90;;;;;;2081094;28;20193;-70
2021/03/24 02:52:17;;;;;;;26.88;12.23;;;-2.90;99.90;;;;;;2082148;28;20188;-70
2021/03/24 02:53:18;;;;;;;24.70;11.65;;;-2.90;99.90;;;;;;2081640;28;20188;-70
2021/03/24 02:54:24;;;;;;;23.20;11.43;;;-2.90;99.90;;;;;;2081271;28;20208;-71
2021/03/24 02:55:26;;;;;;;24.67;11.27;;;-2.90;99.90;;;;;;2082345;28;20180;-70
2021/03/24 02:56:27;;;;;;;23.50;11.25;;;-2.90;99.90;;;;;;2081830;28;20580;-71
2021/03/24 02:57:28;;;;;;;23.80;11.20;;;-2.90;99.90;;;;;;2089605;28;20208;-70
2021/03/24 02:58:29;;;;;;;23.15;11.57;;;-2.90;99.90;;;;;;2081317;28;20189;-72
2021/03/24 02:59:30;;;;;;;24.70;11.00;;;-2.90;99.90;;;;;;2081315;28;20234;-70
2021/03/24 03:00:31;;;;;;;24.43;11.27;;;-2.90;99.90;;;;;;2097922;28;20171;-70
2021/03/24 03:01:58;;;;;;;25.63;11.75;;;-2.90;99.90;;;;;;2080522;28;20213;-70
2021/03/24 03:03:05;;;;;;;23.23;11.20;;;-2.90;99.90;;;;;;2080508;28;20199;-70
2021/03/24 03:04:15;;;;;;;21.17;10.80;;;-2.90;99.90;;;;;;2082146;28;20252;-71
2021/03/24 03:05:22;;;;;;;27.88;11.38;;;-2.90;99.90;;;;;;2082671;28;20247;-71
2021/03/24 03:06:27;;;;;;;21.20;11.13;;;-2.90;99.90;;;;;;2082325;28;20174;-71
2021/03/24 03:07:33;;;;;;;19.75;10.30;;;-2.90;99.90;;;;;;2081954;28;20584;-71
2021/03/24 03:08:43;;;;;;;22.38;10.52;;;-2.90;99.90;;;;;;2082073;28;20170;-70
2021/03/24 03:10:04;;;;;;;18.92;10.05;;;-2.90;99.90;;;;;;2082379;28;20551;-71
2021/03/24 03:11:18;;;;;;;17.98;9.77;;;-2.90;99.90;;;;;;2083480;28;20216;-70
2021/03/24 03:12:37;;;;;;;17.85;9.45;;;-2.90;99.90;;;;;;2083219;28;20248;-71
2021/03/24 03:13:53;;;;;;;19.95;10.25;;;-2.90;99.90;;;;;;2075585;28;20231;-70
2021/03/24 03:15:21;;;;;;;21.52;9.68;;;-3.00;99.90;;;;;;2077261;28;20162;-71
2021/03/24 03:16:47;;;;;;;20.20;9.30;;;-3.00;99.90;;;;;;2085046;28;20202;-71
2021/03/24 03:17:54;;;;;;;17.48;9.00;;;-3.00;99.90;;;;;;2093540;28;20183;-71
2021/03/24 03:19:08;;;;;;;20.77;9.27;;;-3.10;99.90;;;;;;2089156;28;20208;-70
2021/03/24 03:20:11;;;;;;;17.42;9.27;;;-3.10;99.90;;;;;;2075129;28;20181;-70
2021/03/24 03:21:16;;;;;;;19.33;9.93;;;-3.10;99.90;;;;;;2072738;28;20193;-70
2021/03/24 03:22:28;;;;;;;19.58;10.32;;;-3.10;99.90;;;;;;2082732;28;20170;-70
2021/03/24 03:23:31;;;;;;;17.77;9.40;;;-3.10;99.90;;;;;;2090225;28;20601;-71
2021/03/24 03:24:40;;;;;;;21.95;10.70;;;-3.10;99.90;;;;;;2090090;28;20181;-71
2021/03/24 03:25:47;;;;;;;19.35;9.60;;;-3.10;99.90;;;;;;2082668;28;20169;-72
2021/03/24 03:26:53;;;;;;;22.02;10.18;;;-3.10;99.90;;;;;;2089880;28;20196;-71
2021/03/24 03:27:58;;;;;;;19.73;10.50;;;-3.10;99.90;;;;;;2082160;28;20180;-70
2021/03/24 03:29:08;;;;;;;22.08;9.63;;;-3.10;99.90;;;;;;2082265;28;20177;-71
2021/03/24 03:30:14;;;;;;;19.23;9.70;;;-3.10;99.90;;;;;;2082464;28;20184;-71
2021/03/24 03:31:22;;;;;;;20.35;10.57;;;-3.10;99.90;;;;;;2081490;28;20176;-71
2021/03/24 03:32:24;;;;;;;21.10;9.55;;;-3.10;99.90;;;;;;2089536;28;20564;-70
2021/03/24 03:33:31;;;;;;;17.45;8.38;;;-3.10;99.90;;;;;;2089802;28;20811;-71
2021/03/24 03:34:34;;;;;;;19.20;9.73;;;-3.10;99.90;;;;;;2089413;28;20160;-71
2021/03/24 03:35:37;;;;;;;16.98;8.95;;;-3.10;99.90;;;;;;2081562;28;20281;-71
2021/03/24 03:36:45;;;;;;;17.27;9.23;;;-3.10;99.90;;;;;;2089345;28;20189;-70
2021/03/24 03:37:48;;;;;;;21.92;10.20;;;-3.20;99.90;;;;;;2089395;28;20183;-70
2021/03/24 03:38:54;;;;;;;16.38;8.65;;;-3.20;99.90;;;;;;2089713;28;20644;-71
2021/03/24 03:39:56;;;;;;;20.38;10.32;;;-3.20;99.90;;;;;;2089307;28;20654;-71
2021/03/24 03:40:59;;;;;;;17.65;9.80;;;-3.20;99.90;;;;;;2088633;28;20292;-71
2021/03/24 03:42:03;;;;;;;19.15;8.65;;;-3.20;99.90;;;;;;2089555;28;20192;-70
2021/03/24 03:43:07;;;;;;;16.20;9.10;;;-3.20;99.90;;;;;;2076692;28;20231;-70
2021/03/24 03:44:08;;;;;;;18.33;8.73;;;-3.30;99.90;;;;;;2073912;28;20196;-71
2021/03/24 03:45:11;;;;;;;18.33;9.88;;;-3.30;99.90;;;;;;2089595;28;20185;-73
2021/03/24 03:46:17;;;;;;;16.63;8.85;;;-3.30;99.90;;;;;;2089757;28;20263;-70
2021/03/24 03:47:18;;;;;;;19.98;10.65;;;-3.30;99.90;;;;;;2089502;28;20200;-70
2021/03/24 03:48:21;;;;;;;17.00;9.13;;;-3.30;99.90;;;;;;2089414;28;20243;-71
2021/03/24 03:49:22;;;;;;;19.90;10.10;;;-3.30;99.90;;;;;;2089701;28;20176;-71
2021/03/24 03:50:26;;;;;;;20.10;9.75;;;-3.30;99.90;;;;;;2081486;28;20784;-70
2021/03/24 03:51:50;;;;;;;19.90;10.25;;;-3.30;99.90;;;;;;2089415;28;20188;-71
2021/03/24 03:53:20;;;;;;;18.50;8.88;;;-3.30;99.90;;;;;;2094652;28;20189;-71
2021/03/24 03:54:32;;;;;;;21.55;9.77;;;-3.30;99.90;;;;;;2090214;28;20161;-71
2021/03/24 03:56:09;;;;;;;16.50;8.18;;;-3.20;99.90;;;;;;2090171;28;20184;-71
2021/03/24 03:57:18;;;;;;;21.52;9.18;;;-3.20;99.90;;;;;;2088966;28;20558;-71
2021/03/24 03:58:25;;;;;;;19.50;9.50;;;-3.20;99.90;;;;;;2081939;28;20668;-71
2021/03/24 03:59:41;;;;;;;17.80;9.30;;;-3.30;99.90;;;;;;2089075;28;20173;-71
2021/03/24 04:01:01;;;;;;;17.92;8.63;;;-3.30;99.90;;;;;;2088847;28;20250;-70
2021/03/24 04:02:07;;;;;;;19.83;8.75;;;-3.30;99.90;;;;;;2088402;28;20301;-69
2021/03/24 04:03:17;;;;;;;18.73;9.13;;;-3.30;99.90;;;;;;2089120;28;20175;-71
2021/03/24 04:04:42;;;;;;;18.23;9.02;;;-3.30;99.90;;;;;;2090083;28;20263;-71
2021/03/24 04:06:14;;;;;;;16.05;8.40;;;-3.30;99.90;;;;;;2088966;28;20207;-71
2021/03/24 04:07:53;;;;;;;15.48;7.57;;;-3.30;99.90;;;;;;2076329;28;20276;-70
2021/03/24 04:08:55;;;;;;;17.70;8.07;;;-3.30;99.90;;;;;;2080339;28;20856;-71
2021/03/24 04:09:56;;;;;;;23.42;9.20;;;-3.30;99.90;;;;;;2080657;28;20177;-71
2021/03/24 04:11:05;;;;;;;19.33;9.77;;;-3.30;99.90;;;;;;2080061;28;20170;-70
2021/03/24 04:12:13;;;;;;;17.77;7.95;;;-3.30;99.90;;;;;;2088904;28;20172;-70
2021/03/24 04:13:15;;;;;;;16.00;8.23;;;-3.30;99.90;;;;;;2097234;28;20168;-71
2021/03/24 04:14:23;;;;;;;21.80;9.63;;;-3.30;99.90;;;;;;2096796;28;20184;-71
2021/03/24 04:15:25;;;;;;;18.17;8.93;;;-3.30;99.90;;;;;;2088750;28;20180;-70
2021/03/24 04:16:27;;;;;;;17.83;9.07;;;-3.30;99.90;;;;;;2080659;28;20185;-71
2021/03/24 04:17:35;;;;;;;16.88;8.23;;;-3.30;99.90;;;;;;2088785;28;20283;-71
2021/03/24 04:18:48;;;;;;;17.77;8.05;;;-3.30;99.90;;;;;;2081369;28;20247;-71
2021/03/24 04:19:54;;;;;;;17.88;8.88;;;-3.30;99.90;;;;;;2082384;28;20558;-71
2021/03/24 04:20:55;;;;;;;21.23;10.07;;;-3.30;99.90;;;;;;2087975;28;20363;-70
2021/03/24 04:22:01;;;;;;;18.15;9.32;;;-3.30;99.90;;;;;;2088828;28;20176;-71
2021/03/24 04:23:07;;;;;;;16.92;8.30;;;-3.30;99.90;;;;;;2097021;28;20667;-71
2021/03/24 04:24:16;;;;;;;18.52;9.05;;;-3.30;99.90;;;;;;2096421;28;20251;-70
2021/03/24 04:25:28;;;;;;;16.20;8.35;;;-3.30;99.90;;;;;;2088851;28;20165;-71
2021/03/24 04:26:35;;;;;;;16.70;8.15;;;-3.30;99.90;;;;;;2081899;28;20248;-70
2021/03/24 04:27:37;;;;;;;18.63;9.18;;;-3.40;99.90;;;;;;2081398;28;20672;-71
2021/03/24 04:28:43;;;;;;;16.88;9.25;;;-3.30;99.90;;;;;;2088763;28;20287;-71
2021/03/24 04:29:50;;;;;;;18.00;8.88;;;-3.40;99.90;;;;;;2088898;28;20157;-71
2021/03/24 04:31:06;;;;;;;16.38;8.60;;;-3.40;99.90;;;;;;2087952;28;20180;-71
2021/03/24 04:32:08;;;;;;;18.13;8.82;;;-3.40;99.90;;;;;;2090724;28;20179;-70
2021/03/24 04:33:09;;;;;;;19.95;8.30;;;-3.40;99.90;;;;;;2088673;28;20184;-71
2021/03/24 04:34:10;;;;;;;17.43;8.73;;;-3.40;99.90;;;;;;2080510;28;20269;-71
2021/03/24 04:35:17;;;;;;;20.13;8.73;;;-3.40;99.90;;;;;;2088621;28;20180;-71
2021/03/24 04:36:35;;;;;;;22.40;10.43;;;-3.40;99.90;;;;;;2088505;28;20164;-71
2021/03/24 04:37:57;;;;;;;23.38;9.00;;;-3.40;99.90;;;;;;2082575;28;20196;-70
2021/03/24 04:39:25;;;;;;;18.52;9.20;;;-3.40;99.90;;;;;;2083101;28;20169;-71
2021/03/24 04:40:43;;;;;;;16.23;8.30;;;-3.40;99.90;;;;;;2084840;28;20188;-70
2021/03/24 04:41:46;;;;;;;17.92;9.00;;;-3.40;99.90;;;;;;2096299;28;20176;-70
2021/03/24 04:43:11;;;;;;;17.98;8.82;;;-3.40;99.90;;;;;;2096644;28;20176;-70
2021/03/24 04:44:23;;;;;;;18.63;8.65;;;-3.40;99.90;;;;;;2083633;28;20180;-70
2021/03/24 04:45:55;;;;;;;17.92;8.30;;;-3.40;99.90;;;;;;2081857;28;20181;-71
2021/03/24 04:47:15;;;;;;;17.88;7.60;;;-3.40;99.90;;;;;;2085296;28;20698;-70
2021/03/24 04:48:24;;;;;;;18.08;8.52;;;-3.40;99.90;;;;;;2083041;28;20784;-71
2021/03/24 04:49:26;;;;;;;18.70;9.07;;;-3.50;99.90;;;;;;2081471;28;20189;-71
2021/03/24 04:50:34;;;;;;;18.77;8.88;;;-3.40;99.90;;;;;;2088613;28;20211;-71
2021/03/24 04:51:38;;;;;;;17.02;8.60;;;-3.40;99.90;;;;;;2088043;28;20204;-71
2021/03/24 04:52:39;;;;;;;18.60;8.07;;;-3.50;99.90;;;;;;2087942;28;20263;-71
2021/03/24 04:53:47;;;;;;;21.00;10.30;;;-3.50;99.90;;;;;;2089182;28;20234;-71
2021/03/24 04:54:52;;;;;;;23.98;11.40;;;-3.50;99.90;;;;;;2088602;28;20218;-71
2021/03/24 04:55:56;;;;;;;23.83;12.70;;;-3.40;99.90;;;;;;2080819;28;20188;-72
2021/03/24 04:57:05;;;;;;;27.50;15.23;;;-3.40;99.90;;;;;;2072412;28;20173;-71
2021/03/24 04:58:06;;;;;;;37.78;20.33;;;-3.30;99.90;;;;;;2082455;28;20604;-71
2021/03/24 04:59:14;;;;;;;25.88;12.68;;;-3.30;99.90;;;;;;2089282;28;20649;-71
2021/03/24 05:00:36;;;;;;;22.13;10.55;;;-3.30;99.90;;;;;;2089291;28;20169;-70
2021/03/24 05:01:43;;;;;;;21.98;10.65;;;-3.30;99.90;;;;;;2088917;28;20230;-73
2021/03/24 05:02:53;;;;;;;24.60;11.30;;;-3.40;99.90;;;;;;2089436;28;20164;-71
2021/03/24 05:04:04;;;;;;;20.13;10.95;;;-3.40;99.90;;;;;;2082819;28;20162;-71
2021/03/24 05:05:18;;;;;;;20.13;9.93;;;-3.40;99.90;;;;;;2083198;28;20545;-70
2021/03/24 05:06:39;;;;;;;17.85;9.73;;;-3.40;99.90;;;;;;2083200;28;20674;-70
2021/03/24 05:08:00;;;;;;;18.25;8.27;;;-3.40;99.90;;;;;;2084280;28;20303;-69
2021/03/24 05:09:02;;;;;;;15.65;8.15;;;-3.50;99.90;;;;;;2092481;28;20245;-72
2021/03/24 05:10:09;;;;;;;16.42;8.93;;;-3.40;99.90;;;;;;2089613;28;20176;-70
2021/03/24 05:11:36;;;;;;;15.50;7.80;;;-3.50;99.90;;;;;;2089782;28;20180;-71
2021/03/24 05:12:44;;;;;;;13.35;7.45;;;-3.50;99.90;;;;;;2094997;28;20278;-71
2021/03/24 05:14:28;;;;;;;15.98;8.48;;;-3.50;99.90;;;;;;2090907;28;20553;-70
2021/03/24 05:15:40;;;;;;;14.48;7.25;;;-3.50;99.90;;;;;;2084421;28;20699;-70
2021/03/24 05:16:43;;;;;;;14.70;7.03;;;-3.50;99.90;;;;;;2090080;28;20188;-71
2021/03/24 05:17:44;;;;;;;13.38;6.93;;;-3.50;99.90;;;;;;2081983;28;20231;-70
2021/03/24 05:18:53;;;;;;;14.50;7.60;;;-3.50;99.90;;;;;;2089895;28;20184;-71
2021/03/24 05:20:18;;;;;;;16.33;7.43;;;-3.50;99.90;;;;;;2098281;28;20174;-70
2021/03/24 05:21:52;;;;;;;17.80;7.25;;;-3.40;99.90;;;;;;2089010;28;20657;-71
2021/03/24 05:22:53;;;;;;;13.15;7.10;;;-3.50;99.90;;;;;;2069367;28;20783;-70
2021/03/24 05:23:57;;;;;;;15.13;7.30;;;-3.40;99.90;;;;;;2081518;28;20212;-71
2021/03/24 05:25:14;;;;;;;13.23;7.15;;;-3.40;99.90;;;;;;2089424;28;20187;-71
2021/03/24 05:26:39;;;;;;;13.43;7.13;;;-3.40;99.90;;;;;;2089933;28;20552;-71
2021/03/24 05:27:45;;;;;;;18.15;7.95;;;-3.40;99.90;;;;;;2089645;28;20196;-70
2021/03/24 05:28:53;;;;;;;14.88;7.80;;;-3.40;99.90;;;;;;2089532;28;20977;-70
2021/03/24 05:29:59;;;;;;;15.32;6.93;;;-3.40;99.90;;;;;;2082402;28;20161;-70
2021/03/24 05:31:08;;;;;;;15.52;8.38;;;-3.40;99.90;;;;;;2090259;28;20165;-70
2021/03/24 05:32:17;;;;;;;13.85;7.72;;;-3.40;99.90;;;;;;2089949;28;20572;-70
2021/03/24 05:33:30;;;;;;;14.82;7.40;;;-3.40;99.90;;;;;;2089801;28;20657;-70
2021/03/24 05:34:38;;;;;;;13.52;6.85;;;-3.40;99.90;;;;;;2083208;28;20280;-69
2021/03/24 05:35:58;;;;;;;15.57;7.90;;;-3.40;99.90;;;;;;2089303;28;20200;-69
2021/03/24 05:37:01;;;;;;;13.63;7.22;;;-3.40;99.90;;;;;;2097559;28;20167;-72
2021/03/24 05:38:14;;;;;;;12.52;7.38;;;-3.40;99.90;;;;;;2089441;28;20270;-70
2021/03/24 05:39:39;;;;;;;22.55;11.02;;;-3.40;99.90;;;;;;2082875;28;20197;-70
2021/03/24 05:41:07;;;;;;;15.98;8.07;;;-3.30;99.90;;;;;;2084388;28;20633;-69
2021/03/24 05:42:36;;;;;;;17.92;9.18;;;-3.30;99.90;;;;;;2084690;28;20720;-70